メインページ
METAR-TAF:

METAR-TAF

空港 :

マドリード, スペイン

アドルフォ・スアレス・マドリード=バラハス空港

緯度: 40-27N, 経度: 003-33W, 海抜: 609m

現時点の気象観測

当レポートは29分前の04:36(UTC)に作成
の風 3kt
気温 15°C
湿度 94%
気圧 1023 hPa
視程: 6000m
高度900ftの曇り

METAR: LEMD 210436Z 36003KT 6000 OVC009 15/14 Q1023 TEMPO 2500 BR BKN004

時間: 07:05 (05:05 UTC)

予報

当レポートは6時間5分前の23:00(UTC)に作成
予報は21日の 00時(UTC)から 22日の 06時(UTC)まで有効
南/南西の風 3kt
視程10km以上
高度6000ftの雲は散在している
21日の 04時(UTC)から 21日の 07時(UTC)まで一時的に
視程: 0600m
高度200ftの千切れ雲あり
21日の 05時(UTC)から 21日の 09時(UTC)まで一時的に
高度1500ftの千切れ雲あり
21日の 17時(UTC)から 21日の 19時(UTC)まで徐々に
北/北東の風 10kt

TAF: LEMD 202300Z 2100/2206 20003KT 9999 SCT060 TX22/2115Z TN07/2206Z TEMPO 2104/2107 0600 FG BKN002 TEMPO 2105/2109 BKN015 BECMG 2117/2119 03010KT

4,000以上の空港の気象観測と天気予報(METAR報とTAF報)

利用可能な観測所は地図上に黄色い丸と赤い丸で示す。

丸の上にカーソルを重ねると観測所名を参照できる。

次にクリックすると気象観測と天気予報を参照できる。

マップの切り替え:黒色「×」印の緑ボタンをクリックして拡大、「-」印の緑ボタンをクリックして縮小、緑色の三角印をクリックして隣りの地図に切り替え


METAR-TAF: